sensor_id;sensor_type;location;lat;lon;timestamp;pressure;altitude;pressure_sealevel;temperature;humidity
31082;BME280;17737;52.586;13.284;2023-04-20T00:00:55;101625.16;;;5.79;94.14
31082;BME280;17737;52.586;13.284;2023-04-20T00:03:23;101630.13;;;5.73;93.48
31082;BME280;17737;52.586;13.284;2023-04-20T00:05:52;101626.88;;;5.80;93.62
31082;BME280;17737;52.586;13.284;2023-04-20T00:08:20;101622.28;;;5.82;93.29
31082;BME280;17737;52.586;13.284;2023-04-20T00:10:48;101622.56;;;5.90;93.14
31082;BME280;17737;52.586;13.284;2023-04-20T00:13:18;101626.69;;;5.94;93.34
31082;BME280;17737;52.586;13.284;2023-04-20T00:15:46;101629.84;;;5.88;92.91
31082;BME280;17737;52.586;13.284;2023-04-20T00:18:14;101618.88;;;5.80;92.79
31082;BME280;17737;52.586;13.284;2023-04-20T00:20:42;101613.50;;;5.80;93.68
31082;BME280;17737;52.586;13.284;2023-04-20T00:23:10;101609.13;;;5.79;93.72
31082;BME280;17737;52.586;13.284;2023-04-20T00:25:37;101611.06;;;5.77;93.25
31082;BME280;17737;52.586;13.284;2023-04-20T00:28:06;101617.44;;;5.87;92.89
31082;BME280;17737;52.586;13.284;2023-04-20T00:30:35;101625.25;;;5.90;92.69
31082;BME280;17737;52.586;13.284;2023-04-20T00:33:03;101626.69;;;5.83;92.98
31082;BME280;17737;52.586;13.284;2023-04-20T00:35:31;101624.75;;;5.85;93.33
31082;BME280;17737;52.586;13.284;2023-04-20T00:37:59;101616.47;;;5.88;92.63
31082;BME280;17737;52.586;13.284;2023-04-20T00:40:27;101617.34;;;5.89;92.67
31082;BME280;17737;52.586;13.284;2023-04-20T00:42:55;101610.88;;;5.91;93.04
31082;BME280;17737;52.586;13.284;2023-04-20T00:45:23;101616.97;;;5.93;92.62
31082;BME280;17737;52.586;13.284;2023-04-20T00:47:52;101616.25;;;5.91;92.66
31082;BME280;17737;52.586;13.284;2023-04-20T00:50:20;101619.91;;;5.90;92.70
31082;BME280;17737;52.586;13.284;2023-04-20T00:52:48;101618.91;;;5.91;93.17
31082;BME280;17737;52.586;13.284;2023-04-20T00:55:17;101614.44;;;5.92;93.31
31082;BME280;17737;52.586;13.284;2023-04-20T00:57:46;101607.75;;;5.97;92.73
31082;BME280;17737;52.586;13.284;2023-04-20T01:00:14;101611.03;;;6.01;93.11
31082;BME280;17737;52.586;13.284;2023-04-20T01:02:43;101605.66;;;6.01;92.70
31082;BME280;17737;52.586;13.284;2023-04-20T01:05:12;101606.53;;;6.01;93.32
31082;BME280;17737;52.586;13.284;2023-04-20T01:07:40;101607.53;;;6.00;92.48
31082;BME280;17737;52.586;13.284;2023-04-20T01:10:09;101611.63;;;6.04;93.11
31082;BME280;17737;52.586;13.284;2023-04-20T01:12:37;101608.25;;;6.02;92.60
31082;BME280;17737;52.586;13.284;2023-04-20T01:15:06;101608.47;;;5.99;92.73
31082;BME280;17737;52.586;13.284;2023-04-20T01:17:35;101607.63;;;5.99;92.97
31082;BME280;17737;52.586;13.284;2023-04-20T01:20:06;101605.34;;;6.17;92.76
31082;BME280;17737;52.586;13.284;2023-04-20T01:22:43;101600.00;;;6.17;92.29
31082;BME280;17737;52.586;13.284;2023-04-20T01:25:12;101607.53;;;6.12;92.62
31082;BME280;17737;52.586;13.284;2023-04-20T01:27:44;101605.09;;;6.08;93.14
31082;BME280;17737;52.586;13.284;2023-04-20T01:30:12;101598.66;;;6.11;92.38
31082;BME280;17737;52.586;13.284;2023-04-20T01:32:40;101604.22;;;6.08;92.58
31082;BME280;17737;52.586;13.284;2023-04-20T01:35:09;101605.94;;;6.09;92.64
31082;BME280;17737;52.586;13.284;2023-04-20T01:37:38;101596.59;;;6.15;92.81
31082;BME280;17737;52.586;13.284;2023-04-20T01:40:10;101592.47;;;6.11;93.18
31082;BME280;17737;52.586;13.284;2023-04-20T01:42:39;101602.53;;;6.07;92.96
31082;BME280;17737;52.586;13.284;2023-04-20T01:45:08;101604.84;;;6.12;93.87
31082;BME280;17737;52.586;13.284;2023-04-20T01:47:36;101598.78;;;6.32;92.81
31082;BME280;17737;52.586;13.284;2023-04-20T01:50:05;101596.84;;;6.34;92.54
31082;BME280;17737;52.586;13.284;2023-04-20T01:52:33;101587.84;;;6.24;92.48
31082;BME280;17737;52.586;13.284;2023-04-20T01:55:01;101591.00;;;6.18;92.36
31082;BME280;17737;52.586;13.284;2023-04-20T01:57:31;101590.28;;;6.16;93.09
31082;BME280;17737;52.586;13.284;2023-04-20T01:59:59;101589.53;;;6.14;93.17
31082;BME280;17737;52.586;13.284;2023-04-20T02:02:29;101587.09;;;6.22;93.47
31082;BME280;17737;52.586;13.284;2023-04-20T02:04:57;101587.59;;;6.16;93.50
31082;BME280;17737;52.586;13.284;2023-04-20T02:07:25;101590.50;;;6.24;93.00
31082;BME280;17737;52.586;13.284;2023-04-20T02:09:53;101591.25;;;6.15;92.77
31082;BME280;17737;52.586;13.284;2023-04-20T02:12:21;101583.94;;;6.05;93.46
31082;BME280;17737;52.586;13.284;2023-04-20T02:14:51;101574.44;;;6.01;93.40
31082;BME280;17737;52.586;13.284;2023-04-20T02:17:18;101585.88;;;6.03;93.83
31082;BME280;17737;52.586;13.284;2023-04-20T02:19:47;101588.66;;;6.02;93.77
31082;BME280;17737;52.586;13.284;2023-04-20T02:22:14;101581.38;;;6.04;93.55
31082;BME280;17737;52.586;13.284;2023-04-20T02:24:43;101590.47;;;6.01;94.34
31082;BME280;17737;52.586;13.284;2023-04-20T02:27:11;101587.47;;;6.06;94.21
31082;BME280;17737;52.586;13.284;2023-04-20T02:29:38;101597.81;;;6.11;94.11
31082;BME280;17737;52.586;13.284;2023-04-20T02:32:08;101598.53;;;6.13;93.95
31082;BME280;17737;52.586;13.284;2023-04-20T02:34:36;101593.19;;;6.13;94.33
31082;BME280;17737;52.586;13.284;2023-04-20T02:37:04;101594.50;;;6.18;93.95
31082;BME280;17737;52.586;13.284;2023-04-20T02:39:32;101589.53;;;6.14;93.88
31082;BME280;17737;52.586;13.284;2023-04-20T02:42:00;101598.06;;;6.19;94.07
31082;BME280;17737;52.586;13.284;2023-04-20T02:44:28;101591.63;;;6.21;93.43
31082;BME280;17737;52.586;13.284;2023-04-20T02:46:56;101592.69;;;6.19;93.89
31082;BME280;17737;52.586;13.284;2023-04-20T02:49:25;101591.00;;;6.29;93.67
31082;BME280;17737;52.586;13.284;2023-04-20T02:51:53;101593.06;;;6.25;93.44
31082;BME280;17737;52.586;13.284;2023-04-20T02:54:21;101586.28;;;6.21;93.67
31082;BME280;17737;52.586;13.284;2023-04-20T02:56:49;101593.31;;;6.22;93.59
31082;BME280;17737;52.586;13.284;2023-04-20T02:59:17;101594.44;;;6.20;93.22
31082;BME280;17737;52.586;13.284;2023-04-20T03:01:45;101597.44;;;6.15;94.18
31082;BME280;17737;52.586;13.284;2023-04-20T03:04:13;101597.31;;;6.17;94.03
31082;BME280;17737;52.586;13.284;2023-04-20T03:06:43;101592.00;;;6.28;93.65
31082;BME280;17737;52.586;13.284;2023-04-20T03:09:11;101596.59;;;6.26;94.11
31082;BME280;17737;52.586;13.284;2023-04-20T03:11:40;101591.97;;;6.17;93.71
31082;BME280;17737;52.586;13.284;2023-04-20T03:14:08;101587.22;;;6.09;94.43
31082;BME280;17737;52.586;13.284;2023-04-20T03:16:36;101593.41;;;6.09;94.13
31082;BME280;17737;52.586;13.284;2023-04-20T03:19:04;101603.16;;;6.11;94.15
31082;BME280;17737;52.586;13.284;2023-04-20T03:21:32;101602.28;;;5.99;94.08
31082;BME280;17737;52.586;13.284;2023-04-20T03:24:01;101590.97;;;5.95;94.37
31082;BME280;17737;52.586;13.284;2023-04-20T03:26:31;101594.84;;;5.91;94.51
31082;BME280;17737;52.586;13.284;2023-04-20T03:28:59;101599.75;;;5.97;95.12
31082;BME280;17737;52.586;13.284;2023-04-20T03:31:27;101599.34;;;5.91;95.12
31082;BME280;17737;52.586;13.284;2023-04-20T03:33:55;101599.34;;;5.91;94.55
31082;BME280;17737;52.586;13.284;2023-04-20T03:36:23;101600.69;;;5.96;95.06
31082;BME280;17737;52.586;13.284;2023-04-20T03:38:53;101602.13;;;5.89;94.99
31082;BME280;17737;52.586;13.284;2023-04-20T03:41:23;101605.66;;;5.90;94.56
31082;BME280;17737;52.586;13.284;2023-04-20T03:43:51;101614.19;;;5.95;94.97
31082;BME280;17737;52.586;13.284;2023-04-20T03:46:19;101614.06;;;5.96;95.15
31082;BME280;17737;52.586;13.284;2023-04-20T03:48:48;101609.66;;;5.84;95.67
31082;BME280;17737;52.586;13.284;2023-04-20T03:51:17;101616.25;;;5.91;95.45
31082;BME280;17737;52.586;13.284;2023-04-20T03:53:45;101608.94;;;5.93;95.38
31082;BME280;17737;52.586;13.284;2023-04-20T03:56:13;101610.38;;;5.86;95.36
31082;BME280;17737;52.586;13.284;2023-04-20T03:58:42;101598.38;;;5.92;95.70
31082;BME280;17737;52.586;13.284;2023-04-20T04:01:10;101603.59;;;5.93;96.03
31082;BME280;17737;52.586;13.284;2023-04-20T04:03:38;101607.22;;;5.92;96.36
31082;BME280;17737;52.586;13.284;2023-04-20T04:06:08;101615.25;;;5.92;96.13
31082;BME280;17737;52.586;13.284;2023-04-20T04:08:39;101614.66;;;5.89;95.84
31082;BME280;17737;52.586;13.284;2023-04-20T04:11:07;101611.88;;;5.90;95.86
31082;BME280;17737;52.586;13.284;2023-04-20T04:13:35;101613.44;;;5.93;96.59
31082;BME280;17737;52.586;13.284;2023-04-20T04:16:04;101614.94;;;5.97;95.92
31082;BME280;17737;52.586;13.284;2023-04-20T04:18:33;101608.72;;;5.96;95.96
31082;BME280;17737;52.586;13.284;2023-04-20T04:21:01;101619.53;;;5.95;96.42
31082;BME280;17737;52.586;13.284;2023-04-20T04:23:29;101621.72;;;5.90;96.03
31082;BME280;17737;52.586;13.284;2023-04-20T04:25:57;101625.94;;;5.92;95.73
31082;BME280;17737;52.586;13.284;2023-04-20T04:28:27;101625.25;;;5.90;96.11
31082;BME280;17737;52.586;13.284;2023-04-20T04:30:55;101619.03;;;5.90;95.86
31082;BME280;17737;52.586;13.284;2023-04-20T04:33:24;101625.94;;;5.92;95.92
31082;BME280;17737;52.586;13.284;2023-04-20T04:35:52;101620.41;;;5.95;96.27
31082;BME280;17737;52.586;13.284;2023-04-20T04:38:20;101621.84;;;5.99;96.18
31082;BME280;17737;52.586;13.284;2023-04-20T04:40:48;101626.97;;;6.02;95.91
31082;BME280;17737;52.586;13.284;2023-04-20T04:43:17;101626.50;;;6.08;95.85
31082;BME280;17737;52.586;13.284;2023-04-20T04:45:45;101629.53;;;6.04;96.01
31082;BME280;17737;52.586;13.284;2023-04-20T04:48:15;101628.72;;;6.15;95.40
31082;BME280;17737;52.586;13.284;2023-04-20T04:50:44;101633.31;;;6.13;95.89
31082;BME280;17737;52.586;13.284;2023-04-20T04:53:12;101630.41;;;6.27;95.32
31082;BME280;17737;52.586;13.284;2023-04-20T04:55:40;101634.56;;;6.31;95.48
31082;BME280;17737;52.586;13.284;2023-04-20T04:58:08;101636.53;;;6.40;95.02
31082;BME280;17737;52.586;13.284;2023-04-20T05:00:36;101640.91;;;6.41;94.40
31082;BME280;17737;52.586;13.284;2023-04-20T05:03:05;101640.91;;;6.41;94.48
31082;BME280;17737;52.586;13.284;2023-04-20T05:05:34;101636.28;;;6.43;94.02
31082;BME280;17737;52.586;13.284;2023-04-20T05:08:04;101640.66;;;6.44;94.07
31082;BME280;17737;52.586;13.284;2023-04-20T05:10:32;101642.13;;;6.48;94.35
31082;BME280;17737;52.586;13.284;2023-04-20T05:13:00;101642.13;;;6.48;94.39
31082;BME280;17737;52.586;13.284;2023-04-20T05:15:28;101633.63;;;6.65;94.37
31082;BME280;17737;52.586;13.284;2023-04-20T05:17:56;101634.84;;;6.72;93.08
31082;BME280;17737;52.586;13.284;2023-04-20T05:20:24;101629.47;;;6.72;93.16
31082;BME280;17737;52.586;13.284;2023-04-20T05:22:52;101637.75;;;6.80;92.77
31082;BME280;17737;52.586;13.284;2023-04-20T05:25:22;101638.84;;;6.77;93.26
31082;BME280;17737;52.586;13.284;2023-04-20T05:27:50;101648.09;;;6.73;93.53
31082;BME280;17737;52.586;13.284;2023-04-20T05:30:19;101655.13;;;6.52;94.16
31082;BME280;17737;52.586;13.284;2023-04-20T05:32:48;101656.72;;;6.66;94.42
31082;BME280;17737;52.586;13.284;2023-04-20T05:35:18;101639.84;;;6.65;94.36
31082;BME280;17737;52.586;13.284;2023-04-20T05:37:46;101651.00;;;7.03;93.50
31082;BME280;17737;52.586;13.284;2023-04-20T05:40:15;101637.34;;;7.17;91.50
31082;BME280;17737;52.586;13.284;2023-04-20T05:42:44;101635.03;;;7.13;90.55
31082;BME280;17737;52.586;13.284;2023-04-20T05:45:12;101653.94;;;7.11;91.47
31082;BME280;17737;52.586;13.284;2023-04-20T05:47:40;101660.13;;;7.12;91.38
31082;BME280;17737;52.586;13.284;2023-04-20T05:50:09;101654.38;;;7.27;91.16
31082;BME280;17737;52.586;13.284;2023-04-20T05:52:37;101665.31;;;7.36;90.16
31082;BME280;17737;52.586;13.284;2023-04-20T05:55:05;101671.78;;;7.22;90.10
31082;BME280;17737;52.586;13.284;2023-04-20T05:57:34;101685.47;;;7.08;91.20
31082;BME280;17737;52.586;13.284;2023-04-20T06:00:11;101676.19;;;7.23;89.97
31082;BME280;17737;52.586;13.284;2023-04-20T06:02:42;101673.38;;;7.24;89.26
31082;BME280;17737;52.586;13.284;2023-04-20T06:05:19;101677.53;;;7.28;89.38
31082;BME280;17737;52.586;13.284;2023-04-20T06:07:47;101673.38;;;7.24;89.35
31082;BME280;17737;52.586;13.284;2023-04-20T06:10:26;101675.59;;;7.19;89.57
31082;BME280;17737;52.586;13.284;2023-04-20T06:12:59;101667.06;;;7.14;89.12
31082;BME280;17737;52.586;13.284;2023-04-20T06:15:29;101678.16;;;6.99;90.16
31082;BME280;17737;52.586;13.284;2023-04-20T06:17:57;101687.28;;;7.18;90.45
31082;BME280;17737;52.586;13.284;2023-04-20T06:20:26;101686.41;;;7.40;89.63
31082;BME280;17737;52.586;13.284;2023-04-20T06:22:55;101679.09;;;7.42;88.33
31082;BME280;17737;52.586;13.284;2023-04-20T06:25:23;101681.72;;;7.53;88.97
31082;BME280;17737;52.586;13.284;2023-04-20T06:27:51;101679.63;;;7.68;88.10
31082;BME280;17737;52.586;13.284;2023-04-20T06:30:19;101687.19;;;7.63;87.41
31082;BME280;17737;52.586;13.284;2023-04-20T06:32:49;101683.13;;;7.79;86.58
31082;BME280;17737;52.586;13.284;2023-04-20T06:35:17;101690.91;;;7.82;86.99
31082;BME280;17737;52.586;13.284;2023-04-20T06:37:45;101701.09;;;7.68;86.55
31082;BME280;17737;52.586;13.284;2023-04-20T06:40:14;101700.69;;;7.72;86.72
31082;BME280;17737;52.586;13.284;2023-04-20T06:42:42;101703.78;;;7.88;85.81
31082;BME280;17737;52.586;13.284;2023-04-20T06:45:10;101701.56;;;7.73;85.64
31082;BME280;17737;52.586;13.284;2023-04-20T06:47:38;101697.41;;;7.69;86.42
31082;BME280;17737;52.586;13.284;2023-04-20T06:50:09;101687.66;;;7.99;85.06
31082;BME280;17737;52.586;13.284;2023-04-20T06:52:37;101684.50;;;8.26;84.01
31082;BME280;17737;52.586;13.284;2023-04-20T06:55:07;101686.81;;;8.19;83.05
31082;BME280;17737;52.586;13.284;2023-04-20T06:57:36;101694.09;;;8.08;84.51
31082;BME280;17737;52.586;13.284;2023-04-20T07:00:07;101701.13;;;8.09;84.05
31082;BME280;17737;52.586;13.284;2023-04-20T07:02:43;101694.13;;;8.28;83.91
31082;BME280;17737;52.586;13.284;2023-04-20T07:05:14;101689.69;;;8.38;83.33
31082;BME280;17737;52.586;13.284;2023-04-20T07:07:44;101682.31;;;8.82;81.46
31082;BME280;17737;52.586;13.284;2023-04-20T07:10:13;101690.81;;;8.87;81.21
31082;BME280;17737;52.586;13.284;2023-04-20T07:12:42;101680.00;;;9.07;79.80
31082;BME280;17737;52.586;13.284;2023-04-20T07:15:11;101683.44;;;9.19;79.34
31082;BME280;17737;52.586;13.284;2023-04-20T07:17:40;101676.97;;;9.40;79.31
31082;BME280;17737;52.586;13.284;2023-04-20T07:20:08;101688.88;;;9.57;79.62
31082;BME280;17737;52.586;13.284;2023-04-20T07:22:38;101699.22;;;9.52;78.89
31082;BME280;17737;52.586;13.284;2023-04-20T07:25:07;101705.59;;;9.41;76.48
31082;BME280;17737;52.586;13.284;2023-04-20T07:27:37;101691.50;;;9.19;76.54
31082;BME280;17737;52.586;13.284;2023-04-20T07:30:08;101697.53;;;9.02;78.96
31082;BME280;17737;52.586;13.284;2023-04-20T07:32:38;101709.81;;;9.44;76.14
31082;BME280;17737;52.586;13.284;2023-04-20T07:35:11;101705.00;;;9.38;76.21
31082;BME280;17737;52.586;13.284;2023-04-20T07:37:42;101712.44;;;9.25;76.76
31082;BME280;17737;52.586;13.284;2023-04-20T07:40:11;101711.84;;;9.51;76.72
31082;BME280;17737;52.586;13.284;2023-04-20T07:42:40;101725.25;;;9.42;76.70
31082;BME280;17737;52.586;13.284;2023-04-20T07:45:10;101712.84;;;9.60;76.83
31082;BME280;17737;52.586;13.284;2023-04-20T07:47:45;101716.97;;;9.83;74.45
31082;BME280;17737;52.586;13.284;2023-04-20T07:50:17;101714.72;;;9.79;74.53
31082;BME280;17737;52.586;13.284;2023-04-20T07:52:46;101722.47;;;9.62;75.51
31082;BME280;17737;52.586;13.284;2023-04-20T07:55:15;101721.50;;;9.73;75.03
31082;BME280;17737;52.586;13.284;2023-04-20T07:57:44;101729.19;;;9.87;74.80
31082;BME280;17737;52.586;13.284;2023-04-20T08:00:13;101725.47;;;9.79;75.38
31082;BME280;17737;52.586;13.284;2023-04-20T08:02:46;101725.47;;;9.88;75.48
31082;BME280;17737;52.586;13.284;2023-04-20T08:05:15;101732.34;;;10.40;72.93
31082;BME280;17737;52.586;13.284;2023-04-20T08:07:44;101727.34;;;10.07;72.84
31082;BME280;17737;52.586;13.284;2023-04-20T08:10:13;101738.94;;;9.88;74.80
31082;BME280;17737;52.586;13.284;2023-04-20T08:12:44;101735.53;;;9.86;74.63
31082;BME280;17737;52.586;13.284;2023-04-20T08:15:16;101737.66;;;9.73;75.00
31082;BME280;17737;52.586;13.284;2023-04-20T08:17:44;101731.19;;;10.04;74.16
31082;BME280;17737;52.586;13.284;2023-04-20T08:20:12;101741.53;;;10.09;72.82
31082;BME280;17737;52.586;13.284;2023-04-20T08:22:41;101732.47;;;10.29;72.68
31082;BME280;17737;52.586;13.284;2023-04-20T08:25:09;101727.78;;;10.40;71.69
31082;BME280;17737;52.586;13.284;2023-04-20T08:27:38;101728.78;;;10.39;72.18
31082;BME280;17737;52.586;13.284;2023-04-20T08:30:07;101731.75;;;10.55;72.17
31082;BME280;17737;52.586;13.284;2023-04-20T08:32:36;101730.81;;;10.83;70.70
31082;BME280;17737;52.586;13.284;2023-04-20T08:35:04;101737.94;;;10.75;70.03
31082;BME280;17737;52.586;13.284;2023-04-20T08:37:33;101733.72;;;10.53;71.69
31082;BME280;17737;52.586;13.284;2023-04-20T08:40:01;101736.25;;;10.74;70.92
31082;BME280;17737;52.586;13.284;2023-04-20T08:42:29;101741.31;;;10.96;70.33
31082;BME280;17737;52.586;13.284;2023-04-20T08:44:59;101738.19;;;10.81;69.97
31082;BME280;17737;52.586;13.284;2023-04-20T08:47:28;101742.53;;;10.55;71.28
31082;BME280;17737;52.586;13.284;2023-04-20T08:49:58;101742.81;;;10.43;71.23
31082;BME280;17737;52.586;13.284;2023-04-20T08:52:28;101744.09;;;10.10;73.24
31082;BME280;17737;52.586;13.284;2023-04-20T08:54:56;101750.13;;;9.93;72.52
31082;BME280;17737;52.586;13.284;2023-04-20T08:57:24;101747.78;;;9.50;73.63
31082;BME280;17737;52.586;13.284;2023-04-20T08:59:52;101749.16;;;9.35;75.87
31082;BME280;17737;52.586;13.284;2023-04-20T09:02:22;101743.41;;;9.59;75.41
31082;BME280;17737;52.586;13.284;2023-04-20T09:05:00;101746.09;;;9.59;75.73
31082;BME280;17737;52.586;13.284;2023-04-20T09:07:30;101749.81;;;9.28;76.88
31082;BME280;17737;52.586;13.284;2023-04-20T09:09:59;101743.09;;;9.13;78.71
31082;BME280;17737;52.586;13.284;2023-04-20T09:12:27;101750.72;;;9.08;79.61
31082;BME280;17737;52.586;13.284;2023-04-20T09:14:55;101752.84;;;8.84;80.99
31082;BME280;17737;52.586;13.284;2023-04-20T09:17:32;101762.38;;;8.67;83.06
31082;BME280;17737;52.586;13.284;2023-04-20T09:20:02;101755.03;;;8.69;82.77
31082;BME280;17737;52.586;13.284;2023-04-20T09:22:33;101748.56;;;8.72;84.53
31082;BME280;17737;52.586;13.284;2023-04-20T09:25:12;101747.56;;;8.52;86.57
31082;BME280;17737;52.586;13.284;2023-04-20T09:27:41;101746.19;;;8.37;86.54
31082;BME280;17737;52.586;13.284;2023-04-20T09:30:10;101742.91;;;8.33;87.19
31082;BME280;17737;52.586;13.284;2023-04-20T09:32:40;101746.97;;;8.28;88.08
31082;BME280;17737;52.586;13.284;2023-04-20T09:35:08;101740.69;;;8.38;88.87
31082;BME280;17737;52.586;13.284;2023-04-20T09:37:46;101742.22;;;8.52;88.73
31082;BME280;17737;52.586;13.284;2023-04-20T09:40:15;101733.69;;;8.47;88.26
31082;BME280;17737;52.586;13.284;2023-04-20T09:42:46;101732.38;;;8.41;87.81
31082;BME280;17737;52.586;13.284;2023-04-20T09:45:16;101732.19;;;8.33;88.09
31082;BME280;17737;52.586;13.284;2023-04-20T09:47:46;101733.75;;;8.36;88.22
31082;BME280;17737;52.586;13.284;2023-04-20T09:50:19;101737.09;;;8.49;88.23
31082;BME280;17737;52.586;13.284;2023-04-20T09:52:59;101743.66;;;8.77;87.14
31082;BME280;17737;52.586;13.284;2023-04-20T09:55:30;101738.34;;;8.96;86.41
31082;BME280;17737;52.586;13.284;2023-04-20T09:58:01;101731.91;;;9.08;86.40
31082;BME280;17737;52.586;13.284;2023-04-20T10:00:30;101730.66;;;9.12;85.74
31082;BME280;17737;52.586;13.284;2023-04-20T10:03:00;101740.25;;;9.05;85.20
31082;BME280;17737;52.586;13.284;2023-04-20T10:05:32;101732.91;;;9.07;84.60
31082;BME280;17737;52.586;13.284;2023-04-20T10:08:02;101728.22;;;9.39;82.92
31082;BME280;17737;52.586;13.284;2023-04-20T10:10:41;101716.66;;;9.57;82.28
31082;BME280;17737;52.586;13.284;2023-04-20T10:13:11;101722.34;;;9.93;81.78
31082;BME280;17737;52.586;13.284;2023-04-20T10:15:41;101716.31;;;10.38;80.60
31082;BME280;17737;52.586;13.284;2023-04-20T10:18:18;101713.59;;;10.48;79.54
31082;BME280;17737;52.586;13.284;2023-04-20T10:20:50;101711.34;;;10.43;78.81
31082;BME280;17737;52.586;13.284;2023-04-20T10:23:18;101713.91;;;10.45;79.22
31082;BME280;17737;52.586;13.284;2023-04-20T10:25:56;101716.97;;;10.69;77.94
31082;BME280;17737;52.586;13.284;2023-04-20T10:28:36;101712.88;;;10.55;77.92
31082;BME280;17737;52.586;13.284;2023-04-20T10:31:07;101709.50;;;11.00;77.24
31082;BME280;17737;52.586;13.284;2023-04-20T10:33:49;101715.03;;;10.98;75.02
31082;BME280;17737;52.586;13.284;2023-04-20T10:36:23;101717.69;;;11.08;75.95
31082;BME280;17737;52.586;13.284;2023-04-20T10:38:53;101727.09;;;11.31;75.87
31082;BME280;17737;52.586;13.284;2023-04-20T10:41:23;101706.34;;;12.21;74.49
31082;BME280;17737;52.586;13.284;2023-04-20T10:43:51;101693.25;;;13.02;70.48
31082;BME280;17737;52.586;13.284;2023-04-20T10:46:20;101697.28;;;12.47;71.94
31082;BME280;17737;52.586;13.284;2023-04-20T10:48:52;101685.13;;;12.26;72.42
31082;BME280;17737;52.586;13.284;2023-04-20T10:51:22;101688.09;;;12.40;71.50
31082;BME280;17737;52.586;13.284;2023-04-20T10:54:02;101684.56;;;12.65;70.00
31082;BME280;17737;52.586;13.284;2023-04-20T10:56:38;101686.72;;;12.62;68.89
31082;BME280;17737;52.586;13.284;2023-04-20T10:59:09;101689.13;;;12.39;68.60
31082;BME280;17737;52.586;13.284;2023-04-20T11:01:38;101690.03;;;12.30;69.94
31082;BME280;17737;52.586;13.284;2023-04-20T11:04:08;101685.97;;;11.91;70.53
31082;BME280;17737;52.586;13.284;2023-04-20T11:06:37;101679.50;;;11.84;71.35
31082;BME280;17737;52.586;13.284;2023-04-20T11:09:15;101683.94;;;12.11;71.44
31082;BME280;17737;52.586;13.284;2023-04-20T11:11:45;101669.19;;;12.23;71.54
31082;BME280;17737;52.586;13.284;2023-04-20T11:14:25;101682.03;;;11.85;71.56
31082;BME280;17737;52.586;13.284;2023-04-20T11:16:53;101673.19;;;11.93;72.14
31082;BME280;17737;52.586;13.284;2023-04-20T11:19:24;101673.94;;;12.03;72.14
31082;BME280;17737;52.586;13.284;2023-04-20T11:21:55;101671.28;;;12.29;71.34
31082;BME280;17737;52.586;13.284;2023-04-20T11:24:26;101668.69;;;12.70;69.30
31082;BME280;17737;52.586;13.284;2023-04-20T11:26:56;101670.97;;;13.08;68.83
31082;BME280;17737;52.586;13.284;2023-04-20T11:29:29;101662.91;;;12.91;70.25
31082;BME280;17737;52.586;13.284;2023-04-20T11:32:00;101668.53;;;13.31;68.87
31082;BME280;17737;52.586;13.284;2023-04-20T11:34:33;101671.34;;;13.55;66.97
31082;BME280;17737;52.586;13.284;2023-04-20T11:37:03;101670.97;;;13.08;68.07
31082;BME280;17737;52.586;13.284;2023-04-20T11:39:32;101659.91;;;13.28;68.15
31082;BME280;17737;52.586;13.284;2023-04-20T11:42:00;101662.88;;;13.08;69.02
31082;BME280;17737;52.586;13.284;2023-04-20T11:44:28;101676.13;;;13.77;66.77
31082;BME280;17737;52.586;13.284;2023-04-20T11:46:57;101671.81;;;13.51;67.99
31082;BME280;17737;52.586;13.284;2023-04-20T11:49:27;101663.84;;;13.41;66.78
31082;BME280;17737;52.586;13.284;2023-04-20T11:51:57;101656.41;;;13.01;69.88
31082;BME280;17737;52.586;13.284;2023-04-20T11:54:25;101658.00;;;13.78;66.54
31082;BME280;17737;52.586;13.284;2023-04-20T11:56:55;101655.28;;;13.78;67.50
31082;BME280;17737;52.586;13.284;2023-04-20T11:59:24;101648.34;;;13.83;66.80
31082;BME280;17737;52.586;13.284;2023-04-20T12:01:52;101658.16;;;13.76;68.56
31082;BME280;17737;52.586;13.284;2023-04-20T12:04:20;101657.84;;;14.11;65.80
31082;BME280;17737;52.586;13.284;2023-04-20T12:06:49;101650.50;;;13.56;67.16
31082;BME280;17737;52.586;13.284;2023-04-20T12:09:18;101648.25;;;13.35;68.19
31082;BME280;17737;52.586;13.284;2023-04-20T12:11:47;101648.81;;;13.55;67.54
31082;BME280;17737;52.586;13.284;2023-04-20T12:14:14;101640.91;;;13.85;67.42
31082;BME280;17737;52.586;13.284;2023-04-20T12:16:42;101635.00;;;14.14;66.31
31082;BME280;17737;52.586;13.284;2023-04-20T12:19:11;101639.22;;;14.24;66.43
31082;BME280;17737;52.586;13.284;2023-04-20T12:21:39;101634.47;;;14.10;65.88
31082;BME280;17737;52.586;13.284;2023-04-20T12:24:07;101637.50;;;14.23;66.05
31082;BME280;17737;52.586;13.284;2023-04-20T12:26:36;101637.72;;;14.06;66.80
31082;BME280;17737;52.586;13.284;2023-04-20T12:29:04;101626.41;;;14.26;66.83
31082;BME280;17737;52.586;13.284;2023-04-20T12:31:33;101625.63;;;14.65;64.91
31082;BME280;17737;52.586;13.284;2023-04-20T12:34:02;101631.28;;;14.47;64.76
31082;BME280;17737;52.586;13.284;2023-04-20T12:36:30;101625.84;;;14.55;65.12
31082;BME280;17737;52.586;13.284;2023-04-20T12:39:00;101628.81;;;14.84;63.99
31082;BME280;17737;52.586;13.284;2023-04-20T12:41:29;101622.25;;;14.71;62.22
31082;BME280;17737;52.586;13.284;2023-04-20T12:43:58;101620.53;;;14.70;61.96
31082;BME280;17737;52.586;13.284;2023-04-20T12:46:29;101616.34;;;15.06;60.42
31082;BME280;17737;52.586;13.284;2023-04-20T12:48:58;101609.41;;;15.03;59.96
31082;BME280;17737;52.586;13.284;2023-04-20T12:51:26;101598.00;;;15.08;59.05
31082;BME280;17737;52.586;13.284;2023-04-20T12:53:54;101604.75;;;14.73;60.20
31082;BME280;17737;52.586;13.284;2023-04-20T12:56:22;101596.56;;;14.81;61.71
31082;BME280;17737;52.586;13.284;2023-04-20T12:58:50;101599.75;;;15.31;60.36